Time;durP1;ratioP1;P1;durP2;ratioP2;P2;SDS_P1;SDS_P2;PMS_P1;PMS_P2;Temp;Humidity;BMP_temperature;BMP_pressure;BME280_temperature;BME280_humidity;BME280_pressure;Samples;Min_cycle;Max_cycle;Signal;HPM_P1;HPM_P2
2020/12/30 00:01:08;;;;;;;21.40;11.73;;;5.40;99.90;;;;;;5030273;28;20041;-55
2020/12/30 00:04:12;;;;;;;22.35;13.15;;;5.30;99.90;;;;;;5020657;28;20419;-55
2020/12/30 00:07:15;;;;;;;23.98;13.93;;;5.30;99.90;;;;;;5030300;28;20044;-56
2020/12/30 00:10:22;;;;;;;22.95;13.25;;;5.30;99.90;;;;;;5029824;28;20091;-57
2020/12/30 00:13:26;;;;;;;23.35;14.15;;;5.40;99.90;;;;;;5029383;28;20191;-57
2020/12/30 00:16:32;;;;;;;22.70;13.02;;;5.50;99.90;;;;;;5030192;28;20044;-58
2020/12/30 00:19:36;;;;;;;20.70;11.40;;;5.50;99.90;;;;;;5030224;28;20064;-58
2020/12/30 00:22:41;;;;;;;17.20;11.32;;;5.50;99.90;;;;;;5029642;28;20044;-57
2020/12/30 00:25:46;;;;;;;24.48;12.02;;;5.60;99.90;;;;;;5030207;28;20048;-55
2020/12/30 00:28:50;;;;;;;20.52;11.82;;;5.60;99.90;;;;;;5030032;28;20056;-58
2020/12/30 00:31:53;;;;;;;21.98;13.98;;;5.60;99.90;;;;;;5029877;28;20049;-56
2020/12/30 00:34:57;;;;;;;29.90;16.88;;;5.70;99.90;;;;;;5030142;28;20060;-58
2020/12/30 00:38:02;;;;;;;18.02;11.32;;;5.70;99.90;;;;;;5029757;28;20040;-58
2020/12/30 00:41:12;;;;;;;15.45;10.20;;;5.70;99.90;;;;;;5029499;28;20419;-59
2020/12/30 00:44:17;;;;;;;43.05;18.85;;;5.60;99.90;;;;;;5029340;28;20068;-56
2020/12/30 00:47:21;;;;;;;51.78;21.45;;;5.60;99.90;;;;;;5029901;28;20419;-57
2020/12/30 00:50:27;;;;;;;441.27;34.47;;;5.60;99.90;;;;;;5028398;28;20056;-58
2020/12/30 00:53:31;;;;;;;667.38;45.35;;;5.40;99.90;;;;;;5019638;28;20053;-58
2020/12/30 00:56:35;;;;;;;127.32;17.67;;;5.20;99.90;;;;;;5032814;28;20041;-57
2020/12/30 00:59:40;;;;;;;21.75;13.75;;;5.20;99.90;;;;;;5032980;28;20543;-57
2020/12/30 01:02:44;;;;;;;19.63;12.05;;;5.30;99.90;;;;;;5032502;28;20060;-55
2020/12/30 01:05:48;;;;;;;20.10;11.95;;;5.30;99.90;;;;;;5033636;28;20044;-57
2020/12/30 01:08:53;;;;;;;26.25;13.38;;;5.30;99.90;;;;;;5033457;28;20347;-56
2020/12/30 01:12:02;;;;;;;29.50;14.50;;;5.30;99.90;;;;;;5032680;28;20411;-56
2020/12/30 01:15:06;;;;;;;26.33;14.00;;;5.20;99.90;;;;;;5033486;28;20088;-57
2020/12/30 01:18:10;;;;;;;19.90;12.43;;;5.20;99.90;;;;;;5033278;28;20048;-57
2020/12/30 01:21:15;;;;;;;33.83;15.65;;;5.20;99.90;;;;;;5032796;28;20048;-57
2020/12/30 01:24:19;;;;;;;357.13;39.78;;;5.10;99.90;;;;;;5032186;28;20044;-58
2020/12/30 01:27:23;;;;;;;732.13;62.67;;;5.00;99.90;;;;;;5032063;28;20043;-55
2020/12/30 01:30:27;;;;;;;71.28;22.63;;;4.90;99.90;;;;;;5032692;28;20050;-58
2020/12/30 01:33:32;;;;;;;46.50;20.20;;;4.90;99.90;;;;;;5031037;28;20048;-55
2020/12/30 01:36:36;;;;;;;110.63;28.60;;;4.80;99.90;;;;;;5032844;28;20052;-55
2020/12/30 01:39:41;;;;;;;55.00;23.13;;;4.80;99.90;;;;;;5032246;28;20400;-58
2020/12/30 01:42:47;;;;;;;44.95;22.30;;;4.80;99.90;;;;;;5031934;28;20044;-56
2020/12/30 01:45:53;;;;;;;61.03;24.23;;;4.80;99.90;;;;;;5032430;28;20044;-58
2020/12/30 01:48:57;;;;;;;40.90;21.27;;;4.80;99.90;;;;;;5032317;28;20044;-56
2020/12/30 01:52:01;;;;;;;60.28;22.77;;;4.90;99.90;;;;;;5032217;28;20510;-56
2020/12/30 01:55:05;;;;;;;47.20;19.90;;;5.00;99.90;;;;;;5032226;28;20049;-56
2020/12/30 01:58:11;;;;;;;123.18;27.00;;;5.00;99.90;;;;;;5030990;28;20129;-55
2020/12/30 02:01:19;;;;;;;731.22;63.90;;;4.90;99.90;;;;;;5031775;28;20044;-58
2020/12/30 02:04:25;;;;;;;766.15;67.32;;;4.70;99.90;;;;;;5030513;28;20057;-58
2020/12/30 02:07:30;;;;;;;1356.55;107.72;;;4.70;99.90;;;;;;5032321;28;20048;-57
2020/12/30 02:10:35;;;;;;;1099.35;91.38;;;4.60;99.90;;;;;;5031828;28;20407;-56
2020/12/30 02:13:38;;;;;;;1239.57;106.32;;;4.70;99.90;;;;;;5031152;28;20040;-57
2020/12/30 02:16:52;;;;;;;1790.18;141.23;;;4.60;99.90;;;;;;5031554;28;20634;-58
2020/12/30 02:19:56;;;;;;;1180.25;95.63;;;4.60;99.90;;;;;;5031512;28;20117;-58
2020/12/30 02:23:10;;;;;;;1477.28;113.78;;;4.50;99.90;;;;;;5031538;28;20036;-56
2020/12/30 02:26:14;;;;;;;1013.45;79.72;;;4.40;99.90;;;;;;5031855;28;20048;-56
2020/12/30 02:29:18;;;;;;;690.42;51.13;;;4.50;99.90;;;;;;5031648;28;20048;-57
2020/12/30 02:32:23;;;;;;;338.65;28.10;;;4.50;99.90;;;;;;5031351;28;20048;-59
2020/12/30 02:35:26;;;;;;;582.72;44.78;;;4.50;99.90;;;;;;5024863;28;20044;-59
2020/12/30 02:38:31;;;;;;;317.70;30.30;;;4.50;99.90;;;;;;5029734;28;20052;-59
2020/12/30 02:41:36;;;;;;;812.15;57.80;;;4.50;99.90;;;;;;5031266;28;20045;-55
2020/12/30 02:44:40;;;;;;;166.45;19.00;;;4.60;99.90;;;;;;5031228;28;20052;-59
2020/12/30 02:47:44;;;;;;;215.95;18.80;;;4.60;99.90;;;;;;5031044;28;20040;-57
2020/12/30 02:50:49;;;;;;;700.17;47.30;;;4.60;99.90;;;;;;5030231;28;20036;-58
2020/12/30 02:53:53;;;;;;;571.72;39.40;;;4.50;99.90;;;;;;5031150;28;20060;-59
2020/12/30 02:56:58;;;;;;;622.28;39.60;;;4.40;99.90;;;;;;5020426;28;20391;-55
2020/12/30 03:00:03;;;;;;;494.08;33.58;;;4.30;99.90;;;;;;5031094;28;20041;-58
2020/12/30 03:03:06;;;;;;;302.17;30.65;;;4.10;99.90;;;;;;5026440;28;20052;-58
2020/12/30 03:06:11;;;;;;;345.67;27.50;;;4.10;99.90;;;;;;5030213;28;20096;-55
2020/12/30 03:09:15;;;;;;;209.38;18.35;;;4.10;99.90;;;;;;5021793;28;20041;-58
2020/12/30 03:12:20;;;;;;;273.38;24.05;;;4.10;99.90;;;;;;5019350;28;20053;-58
2020/12/30 03:15:24;;;;;;;102.68;16.20;;;4.00;99.90;;;;;;5029437;28;20044;-56
2020/12/30 03:18:28;;;;;;;16.42;9.68;;;4.00;99.90;;;;;;5030525;28;20067;-58
2020/12/30 03:21:32;;;;;;;187.38;17.02;;;4.10;99.90;;;;;;5030277;28;20453;-55
2020/12/30 03:24:36;;;;;;;333.40;27.85;;;4.10;99.90;;;;;;5030104;28;20048;-58
2020/12/30 03:27:40;;;;;;;437.25;34.58;;;4.10;99.90;;;;;;5020096;28;20056;-55
2020/12/30 03:30:44;;;;;;;427.02;34.08;;;4.20;99.90;;;;;;5030346;28;20587;-58
2020/12/30 03:33:48;;;;;;;63.47;13.43;;;4.20;99.90;;;;;;5030252;28;20048;-58
2020/12/30 03:36:52;;;;;;;66.10;13.27;;;4.10;99.90;;;;;;5030256;28;20044;-55
2020/12/30 03:39:57;;;;;;;602.65;39.10;;;4.10;99.90;;;;;;5029884;28;20041;-57
2020/12/30 03:43:00;;;;;;;802.40;51.40;;;4.10;99.90;;;;;;5019806;28;20037;-57
2020/12/30 03:46:04;;;;;;;687.75;47.95;;;3.90;99.90;;;;;;5016069;28;20036;-55
2020/12/30 03:49:08;;;;;;;368.80;25.33;;;3.80;99.90;;;;;;5029497;28;20041;-55
2020/12/30 03:52:13;;;;;;;147.52;12.95;;;3.90;99.90;;;;;;5040386;28;20543;-56
2020/12/30 03:55:17;;;;;;;75.85;9.45;;;4.00;99.90;;;;;;5029309;28;20420;-57
2020/12/30 03:58:21;;;;;;;26.25;8.20;;;4.00;99.90;;;;;;5019342;28;20514;-57
2020/12/30 04:01:26;;;;;;;45.05;8.93;;;4.00;99.90;;;;;;5029432;28;20041;-57
2020/12/30 04:04:32;;;;;;;281.77;17.58;;;4.10;99.90;;;;;;5029675;28;20041;-56
2020/12/30 04:07:37;;;;;;;199.48;15.48;;;4.10;99.90;;;;;;5029666;28;20514;-57
2020/12/30 04:10:41;;;;;;;325.33;24.13;;;4.10;99.90;;;;;;5029239;28;20061;-56
2020/12/30 04:13:45;;;;;;;695.60;37.58;;;4.10;99.90;;;;;;5027494;28;20431;-58
2020/12/30 04:16:49;;;;;;;551.00;31.95;;;4.00;99.90;;;;;;5022342;28;20048;-56
2020/12/30 04:19:53;;;;;;;446.85;28.98;;;3.90;99.90;;;;;;5016435;28;20515;-57
2020/12/30 04:22:58;;;;;;;532.80;28.90;;;3.80;99.90;;;;;;5029810;28;20515;-57
2020/12/30 04:26:02;;;;;;;670.45;43.80;;;3.70;99.90;;;;;;5028884;28;20040;-58
2020/12/30 04:29:07;;;;;;;558.85;41.75;;;3.60;99.90;;;;;;5029499;28;20048;-59
2020/12/30 04:32:11;;;;;;;172.27;19.33;;;3.60;99.90;;;;;;5028804;28;20056;-58
2020/12/30 04:35:15;;;;;;;426.80;29.77;;;3.60;99.90;;;;;;5028870;28;20044;-59
2020/12/30 04:38:20;;;;;;;216.45;19.00;;;3.70;99.90;;;;;;5029658;28;20048;-58
2020/12/30 04:41:31;;;;;;;330.60;27.63;;;3.70;99.90;;;;;;5029275;28;20048;-59
2020/12/30 04:44:41;;;;;;;78.43;11.13;;;3.70;99.90;;;;;;5016706;28;20040;-56
2020/12/30 04:47:47;;;;;;;304.48;20.88;;;3.70;99.90;;;;;;5029189;28;20044;-59
2020/12/30 04:50:53;;;;;;;295.45;18.15;;;3.70;99.90;;;;;;5028882;28;20525;-58
2020/12/30 04:54:00;;;;;;;221.82;18.35;;;3.70;99.90;;;;;;5029094;28;20045;-55
2020/12/30 04:57:04;;;;;;;129.98;11.65;;;3.60;99.90;;;;;;5028665;28;20048;-58
2020/12/30 05:00:08;;;;;;;507.15;32.80;;;3.60;99.90;;;;;;5037920;28;20041;-59
2020/12/30 05:03:14;;;;;;;128.30;12.65;;;3.50;99.90;;;;;;5028904;28;20056;-58
2020/12/30 05:06:19;;;;;;;509.35;32.05;;;3.50;99.90;;;;;;5029245;28;20104;-59
2020/12/30 05:09:24;;;;;;;509.10;36.17;;;3.40;99.90;;;;;;5018483;28;20064;-57
2020/12/30 05:12:29;;;;;;;1085.53;82.43;;;3.40;99.90;;;;;;5028513;28;20423;-57
2020/12/30 05:15:34;;;;;;;438.63;37.67;;;3.40;99.90;;;;;;5029447;28;20045;-59
2020/12/30 05:18:42;;;;;;;348.80;27.95;;;3.40;99.90;;;;;;5019673;28;20530;-58
2020/12/30 05:21:47;;;;;;;66.82;12.35;;;3.50;99.90;;;;;;5026383;28;20063;-58
2020/12/30 05:24:52;;;;;;;352.65;34.65;;;3.50;99.90;;;;;;5029016;28;20526;-58
2020/12/30 05:27:57;;;;;;;1511.00;137.48;;;3.60;99.90;;;;;;5028867;28;20416;-57
2020/12/30 05:31:03;;;;;;;121.50;16.73;;;3.80;99.90;;;;;;5028957;28;20046;-58
2020/12/30 05:34:09;;;;;;;530.20;43.85;;;3.80;99.90;;;;;;5015011;28;20157;-57
2020/12/30 05:37:15;;;;;;;87.00;13.98;;;3.90;99.90;;;;;;5026292;28;20049;-58
2020/12/30 05:40:22;;;;;;;1303.13;112.13;;;3.80;99.90;;;;;;5032302;28;20057;-58
2020/12/30 05:43:27;;;;;;;24.17;9.38;;;3.70;99.90;;;;;;5031356;28;20042;-57
2020/12/30 05:46:31;;;;;;;47.10;10.57;;;3.70;99.90;;;;;;5028745;28;20044;-58
2020/12/30 05:49:37;;;;;;;729.38;58.58;;;3.50;99.90;;;;;;5032633;28;20073;-57
2020/12/30 05:52:41;;;;;;;1635.93;120.60;;;3.30;99.90;;;;;;5032427;28;20040;-57
2020/12/30 05:55:48;;;;;;;1222.70;86.57;;;3.10;99.90;;;;;;5041748;28;20033;-56
2020/12/30 05:58:52;;;;;;;94.70;17.08;;;3.00;99.90;;;;;;5032526;28;20045;-57
2020/12/30 06:01:57;;;;;;;137.48;13.32;;;3.00;99.90;;;;;;5022094;28;20044;-58
2020/12/30 06:05:10;;;;;;;19.58;8.40;;;3.00;99.90;;;;;;5032206;28;20048;-56
2020/12/30 06:08:18;;;;;;;58.55;11.63;;;3.00;99.90;;;;;;5030765;28;20048;-58
2020/12/30 06:11:28;;;;;;;118.80;12.55;;;3.00;99.90;;;;;;5034573;28;20049;-56
2020/12/30 06:14:32;;;;;;;111.72;11.80;;;3.00;99.90;;;;;;5038601;28;20039;-58
2020/12/30 06:18:01;;;;;;;54.92;13.13;;;2.90;99.90;;;;;;5042642;28;20044;-58
2020/12/30 06:21:08;;;;;;;31.90;10.45;;;2.80;99.90;;;;;;5027916;28;20436;-59
2020/12/30 06:24:14;;;;;;;32.53;11.48;;;2.90;99.90;;;;;;5030624;28;20072;-55
2020/12/30 06:27:24;;;;;;;29.38;11.82;;;3.00;99.90;;;;;;5032383;28;20063;-57
2020/12/30 06:30:28;;;;;;;26.50;12.00;;;3.00;99.90;;;;;;5042483;28;20407;-58
2020/12/30 06:33:32;;;;;;;33.78;14.10;;;2.90;99.90;;;;;;5040503;28;20044;-59
2020/12/30 06:36:38;;;;;;;124.88;22.23;;;2.80;99.90;;;;;;5044221;28;20044;-58
2020/12/30 06:39:42;;;;;;;325.77;32.55;;;2.80;99.90;;;;;;5019303;28;20052;-59
2020/12/30 06:42:49;;;;;;;526.42;50.13;;;2.80;99.90;;;;;;5028352;28;20403;-58
2020/12/30 06:45:54;;;;;;;621.35;56.67;;;2.70;99.90;;;;;;5011633;28;20126;-58
2020/12/30 06:48:59;;;;;;;770.10;69.55;;;2.80;99.90;;;;;;5014248;28;20040;-57
2020/12/30 06:52:24;;;;;;;363.17;37.10;;;2.80;99.90;;;;;;5017159;28;20045;-58
2020/12/30 06:55:47;;;;;;;129.27;19.08;;;2.90;99.90;;;;;;5013713;28;20530;-58
2020/12/30 06:58:51;;;;;;;236.00;25.65;;;3.00;99.90;;;;;;5033990;28;20068;-56
2020/12/30 07:02:00;;;;;;;216.13;24.33;;;3.00;99.90;;;;;;5043790;28;20044;-59
2020/12/30 07:05:04;;;;;;;679.63;53.20;;;3.00;99.90;;;;;;5027662;28;20052;-56
2020/12/30 07:08:09;;;;;;;751.53;61.65;;;2.90;99.90;;;;;;5032934;28;20044;-58
2020/12/30 07:11:39;;;;;;;1101.95;85.07;;;2.90;99.90;;;;;;5030909;28;20068;-64
2020/12/30 07:14:43;;;;;;;589.67;50.10;;;2.90;99.90;;;;;;5036186;28;20032;-57
2020/12/30 07:17:48;;;;;;;831.53;73.97;;;2.80;99.90;;;;;;5020386;28;20041;-59
2020/12/30 07:20:54;;;;;;;697.33;58.97;;;2.90;99.90;;;;;;5026737;28;20053;-55
2020/12/30 07:24:02;;;;;;;1070.15;79.18;;;3.10;99.90;;;;;;5024925;28;20053;-55
2020/12/30 07:27:11;;;;;;;513.50;39.85;;;3.00;99.90;;;;;;5016485;28;20060;-57
2020/12/30 07:30:15;;;;;;;943.97;65.40;;;3.00;99.90;;;;;;5036549;28;20051;-55
2020/12/30 07:33:19;;;;;;;621.20;54.25;;;2.90;99.90;;;;;;5032491;28;20060;-57
2020/12/30 07:36:26;;;;;;;807.38;62.08;;;3.00;99.90;;;;;;5025880;28;20052;-58
2020/12/30 07:39:34;;;;;;;526.10;40.78;;;3.10;99.90;;;;;;5028910;28;20036;-58
2020/12/30 07:42:39;;;;;;;806.38;55.40;;;3.20;99.90;;;;;;5018362;28;20477;-56
2020/12/30 07:45:43;;;;;;;388.02;31.88;;;3.20;99.90;;;;;;5027635;28;20048;-57
2020/12/30 07:48:47;;;;;;;629.60;46.55;;;3.30;99.90;;;;;;5013753;28;20041;-56
2020/12/30 07:51:56;;;;;;;872.45;63.42;;;3.30;99.90;;;;;;5028865;28;20519;-57
2020/12/30 07:55:01;;;;;;;1078.13;85.78;;;3.30;99.90;;;;;;5026796;28;20408;-58
2020/12/30 07:58:07;;;;;;;968.28;71.55;;;3.40;99.90;;;;;;5015288;28;20041;-56
2020/12/30 08:01:11;;;;;;;492.05;37.45;;;3.40;99.90;;;;;;5033115;28;20044;-54
2020/12/30 08:04:15;;;;;;;1090.53;77.38;;;3.40;99.90;;;;;;5023349;28;20072;-55
2020/12/30 08:07:19;;;;;;;625.58;45.10;;;3.40;99.90;;;;;;5011757;28;20056;-58
2020/12/30 08:10:23;;;;;;;1086.18;80.22;;;3.50;99.90;;;;;;5026893;28;20044;-58
2020/12/30 08:13:27;;;;;;;539.55;35.60;;;3.50;99.90;;;;;;5017535;28;20045;-57
2020/12/30 08:16:31;;;;;;;140.88;16.15;;;3.70;99.90;;;;;;5016362;28;20053;-58
2020/12/30 08:19:41;;;;;;;12.85;6.47;;;4.70;99.90;;;;;;5017765;28;20044;-56
2020/12/30 08:22:45;;;;;;;7.65;4.28;;;6.10;99.90;;;;;;5020514;28;20028;-58
2020/12/30 08:25:49;;;;;;;3.45;2.67;;;7.40;99.90;;;;;;5037365;28;20049;-59
2020/12/30 08:28:54;;;;;;;4.28;3.17;;;8.10;99.90;;;;;;5029853;28;20029;-60
2020/12/30 08:32:22;;;;;;;6.50;2.20;;;8.00;99.90;;;;;;5021479;28;20037;-59
2020/12/30 08:35:33;;;;;;;3.55;1.83;;;7.00;99.90;;;;;;5031004;28;20491;-57
2020/12/30 08:38:39;;;;;;;2.55;1.80;;;7.00;99.90;;;;;;5027117;28;20025;-59
2020/12/30 08:41:53;;;;;;;2.80;1.42;;;8.30;99.90;;;;;;5028147;28;20030;-59
2020/12/30 08:45:02;;;;;;;1.92;1.00;;;10.50;99.90;;;;;;5026590;28;20038;-58
2020/12/30 08:48:15;;;;;;;2.08;1.10;;;11.60;99.90;;;;;;5019865;28;20044;-55
2020/12/30 08:51:27;;;;;;;2.08;1.20;;;11.00;99.90;;;;;;5024925;28;20468;-55
2020/12/30 08:54:31;;;;;;;3.30;1.30;;;9.20;99.90;;;;;;5024158;28;20049;-57
2020/12/30 08:57:35;;;;;;;4.25;1.35;;;8.40;99.90;;;;;;5026896;28;20260;-58
2020/12/30 09:00:41;;;;;;;2.75;1.52;;;7.40;99.90;;;;;;5023571;28;20033;-55
2020/12/30 09:03:45;;;;;;;4.25;2.03;;;6.90;99.90;;;;;;5020093;28;20037;-56
2020/12/30 09:06:50;;;;;;;3.75;1.70;;;6.80;99.90;;;;;;5022655;28;20037;-57
2020/12/30 09:10:01;;;;;;;6.45;2.90;;;6.80;99.90;;;;;;5017046;28;20038;-58
2020/12/30 09:13:33;;;;;;;5.45;2.20;;;7.00;99.90;;;;;;5022952;28;20037;-55
2020/12/30 09:16:51;;;;;;;3.45;1.70;;;7.10;99.90;;;;;;5023067;28;20042;-58
2020/12/30 09:20:16;;;;;;;4.55;2.03;;;7.10;99.90;;;;;;5031443;28;20037;-58
2020/12/30 09:23:21;;;;;;;2.65;1.70;;;7.30;99.90;;;;;;5026321;28;20037;-57
2020/12/30 09:26:29;;;;;;;3.72;1.95;;;7.60;99.90;;;;;;5032892;28;20037;-55
2020/12/30 09:29:34;;;;;;;6.97;2.67;;;7.70;99.90;;;;;;5032442;28;20045;-57
2020/12/30 09:32:39;;;;;;;4.28;2.80;;;7.50;99.90;;;;;;5018730;28;20037;-55
2020/12/30 09:35:44;;;;;;;5.55;2.63;;;7.60;99.90;;;;;;5032558;28;20037;-56
2020/12/30 09:38:55;;;;;;;7.28;2.58;;;7.40;99.90;;;;;;5032044;28;20033;-57
2020/12/30 09:42:02;;;;;;;8.15;2.83;;;7.00;99.90;;;;;;5030867;28;20033;-56
2020/12/30 09:45:08;;;;;;;7.30;2.83;;;6.80;99.90;;;;;;5035813;28;20041;-56
2020/12/30 09:48:18;;;;;;;7.10;2.83;;;7.00;99.90;;;;;;5029911;28;20029;-55
2020/12/30 09:51:23;;;;;;;6.63;2.95;;;6.70;99.90;;;;;;5035520;28;20038;-57
2020/12/30 09:54:27;;;;;;;4.13;2.40;;;6.90;99.90;;;;;;5033918;28;20040;-55
2020/12/30 09:57:31;;;;;;;4.82;3.05;;;6.90;99.90;;;;;;5012138;28;20045;-56
2020/12/30 10:00:35;;;;;;;3.88;2.50;;;6.60;99.90;;;;;;5026443;28;20491;-56
2020/12/30 10:03:39;;;;;;;4.38;2.75;;;6.70;99.90;;;;;;5023318;28;20045;-58
2020/12/30 10:06:47;;;;;;;6.55;2.88;;;6.80;99.90;;;;;;5035032;28;20049;-57
2020/12/30 10:09:52;;;;;;;7.60;2.50;;;6.60;99.90;;;;;;5036156;28;20404;-56
2020/12/30 10:12:57;;;;;;;5.10;2.50;;;6.70;99.90;;;;;;5035430;28;20508;-57
2020/12/30 10:16:02;;;;;;;5.75;2.40;;;6.80;99.90;;;;;;5037040;28;20037;-58
2020/12/30 10:19:06;;;;;;;6.40;2.50;;;6.80;99.90;;;;;;5032478;28;20495;-57
2020/12/30 10:22:11;;;;;;;11.27;2.83;;;6.50;99.90;;;;;;5035744;28;20045;-56
2020/12/30 10:25:16;;;;;;;7.32;3.70;;;6.50;99.90;;;;;;5027303;28;20040;-57
2020/12/30 10:28:20;;;;;;;6.88;2.45;;;6.50;99.90;;;;;;5034027;28;20034;-56
2020/12/30 10:31:25;;;;;;;5.65;2.85;;;6.40;99.90;;;;;;5028488;28;20272;-58
2020/12/30 10:34:29;;;;;;;4.63;2.60;;;6.30;99.90;;;;;;5028821;28;20030;-58
2020/12/30 10:37:33;;;;;;;9.40;2.72;;;6.30;99.90;;;;;;5032449;28;20029;-59
2020/12/30 10:40:38;;;;;;;6.82;2.60;;;6.30;99.90;;;;;;5032999;28;20041;-58
2020/12/30 10:43:42;;;;;;;6.15;2.85;;;6.40;99.90;;;;;;5030241;28;20037;-57
2020/12/30 10:46:47;;;;;;;6.82;3.20;;;6.40;99.90;;;;;;5029440;28;20038;-59
2020/12/30 10:49:51;;;;;;;7.45;4.40;;;6.30;99.90;;;;;;5028232;28;20377;-58
2020/12/30 10:52:55;;;;;;;10.10;4.93;;;6.40;99.90;;;;;;5023741;28;20034;-58
2020/12/30 10:56:00;;;;;;;9.70;5.03;;;6.40;99.90;;;;;;5031290;28;20407;-59
2020/12/30 10:59:04;;;;;;;9.98;4.63;;;6.30;99.90;;;;;;5022256;28;20026;-57
2020/12/30 11:02:27;;;;;;;8.88;4.80;;;6.30;99.90;;;;;;5027698;28;20413;-55
2020/12/30 11:05:31;;;;;;;11.65;4.38;;;6.30;99.90;;;;;;5025635;28;20033;-55
2020/12/30 11:08:36;;;;;;;7.00;4.05;;;6.30;99.90;;;;;;5027731;28;20072;-58
2020/12/30 11:11:40;;;;;;;7.68;3.85;;;6.30;99.90;;;;;;5029800;28;20042;-56
2020/12/30 11:14:45;;;;;;;6.57;4.05;;;6.20;99.90;;;;;;5030623;28;20497;-56
2020/12/30 11:17:49;;;;;;;7.82;4.60;;;6.20;99.90;;;;;;5043432;28;20029;-56
2020/12/30 11:20:53;;;;;;;6.78;4.60;;;6.20;99.90;;;;;;5027885;28;20038;-57
2020/12/30 11:23:57;;;;;;;11.18;4.38;;;6.20;99.90;;;;;;5030315;28;20396;-56
2020/12/30 11:27:01;;;;;;;7.63;3.72;;;6.20;99.90;;;;;;5021126;28;20530;-57
2020/12/30 11:30:06;;;;;;;9.98;3.80;;;6.30;99.90;;;;;;5019950;28;20061;-55
2020/12/30 11:33:10;;;;;;;7.45;3.78;;;6.40;99.90;;;;;;5025855;28;20046;-56
2020/12/30 11:36:14;;;;;;;6.90;4.10;;;6.30;99.90;;;;;;5028825;28;20041;-55
2020/12/30 11:39:19;;;;;;;9.02;4.45;;;6.40;99.90;;;;;;5023120;28;20037;-56
2020/12/30 11:42:23;;;;;;;13.23;5.18;;;6.40;99.90;;;;;;5030758;28;20045;-58
2020/12/30 11:45:27;;;;;;;11.65;6.32;;;6.40;99.90;;;;;;5028493;28;20056;-58
2020/12/30 11:48:31;;;;;;;15.27;9.77;;;6.40;99.90;;;;;;5029654;28;20411;-58
2020/12/30 11:51:39;;;;;;;23.15;12.07;;;6.40;99.90;;;;;;5029117;28;20044;-55
2020/12/30 11:54:44;;;;;;;34.85;21.13;;;6.40;99.90;;;;;;5027235;28;20053;-56
2020/12/30 11:57:48;;;;;;;16.65;8.32;;;6.40;99.90;;;;;;5028425;28;20419;-58
2020/12/30 12:00:52;;;;;;;58.38;28.13;;;6.40;99.90;;;;;;5027329;28;20044;-55
2020/12/30 12:03:57;;;;;;;25.48;12.85;;;6.40;99.90;;;;;;5024692;28;20060;-56
2020/12/30 12:07:02;;;;;;;15.43;7.47;;;6.40;99.90;;;;;;5021083;28;20048;-57
2020/12/30 12:10:08;;;;;;;8.75;3.67;;;6.40;99.90;;;;;;5026981;28;20052;-56
2020/12/30 12:13:13;;;;;;;27.60;4.38;;;6.20;99.90;;;;;;5016338;28;20049;-56
2020/12/30 12:16:17;;;;;;;552.95;55.40;;;6.20;99.90;;;;;;5038427;28;20044;-57
2020/12/30 12:19:25;;;;;;;4.70;3.33;;;6.00;99.90;;;;;;5009926;28;20507;-57
2020/12/30 12:22:30;;;;;;;33.38;4.20;;;5.90;99.90;;;;;;5010330;28;20037;-57
2020/12/30 12:25:34;;;;;;;3.75;2.22;;;5.90;99.90;;;;;;5031024;28;20040;-58
2020/12/30 12:28:44;;;;;;;115.95;9.00;;;5.70;99.90;;;;;;5031626;28;20029;-56
2020/12/30 12:32:00;;;;;;;4.93;2.72;;;5.70;99.90;;;;;;5027771;28;20048;-58
2020/12/30 12:35:05;;;;;;;3.63;2.25;;;5.60;99.90;;;;;;5025441;28;20080;-57
2020/12/30 12:38:10;;;;;;;4.15;2.22;;;5.50;99.90;;;;;;5014484;28;20042;-59
2020/12/30 12:41:15;;;;;;;4.70;1.83;;;5.40;99.90;;;;;;5016571;28;20056;-59
2020/12/30 12:44:20;;;;;;;10.82;4.95;;;5.30;99.90;;;;;;5018157;28;20045;-59
2020/12/30 12:47:24;;;;;;;10.60;4.85;;;5.30;99.90;;;;;;5018144;28;20523;-56
2020/12/30 12:50:28;;;;;;;37.53;16.15;;;5.20;99.90;;;;;;5019377;28;20048;-58
2020/12/30 12:53:32;;;;;;;42.72;19.58;;;5.10;99.90;;;;;;5016677;28;20412;-59
2020/12/30 12:56:36;;;;;;;130.95;52.97;;;5.10;99.90;;;;;;5028244;28;20056;-57
2020/12/30 12:59:41;;;;;;;62.85;26.13;;;5.00;99.90;;;;;;5028388;28;20070;-55
2020/12/30 13:02:45;;;;;;;16.42;7.30;;;5.00;99.90;;;;;;5028327;28;20044;-55
2020/12/30 13:05:49;;;;;;;2.72;1.23;;;4.90;99.90;;;;;;5029377;28;20032;-57
2020/12/30 13:08:53;;;;;;;6.65;3.05;;;4.80;99.90;;;;;;5017515;28;20025;-56
2020/12/30 13:11:58;;;;;;;6.05;4.38;;;4.60;99.90;;;;;;5028120;28;20026;-58
2020/12/30 13:15:02;;;;;;;14.20;9.25;;;4.50;99.90;;;;;;5028688;28;20042;-56
2020/12/30 13:18:07;;;;;;;12.45;8.70;;;4.30;99.90;;;;;;5028518;28;20044;-58
2020/12/30 13:21:11;;;;;;;8.23;5.65;;;4.20;99.90;;;;;;5029011;28;20037;-55
2020/12/30 13:24:15;;;;;;;8.38;5.60;;;4.10;99.90;;;;;;5020872;28;20041;-56
2020/12/30 13:27:19;;;;;;;15.07;9.10;;;4.10;99.90;;;;;;5028530;28;20041;-55
2020/12/30 13:30:23;;;;;;;15.68;7.90;;;4.10;99.90;;;;;;5028859;28;20041;-57
2020/12/30 13:33:28;;;;;;;8.55;4.03;;;4.10;99.90;;;;;;5028212;28;20515;-58
2020/12/30 13:36:32;;;;;;;3.00;1.40;;;4.20;99.90;;;;;;5028762;28;20386;-55
2020/12/30 13:39:36;;;;;;;1.00;0.60;;;4.30;99.90;;;;;;5029016;28;20037;-56
2020/12/30 13:42:40;;;;;;;1.02;0.80;;;4.40;99.90;;;;;;5014736;28;20033;-56
2020/12/30 13:45:44;;;;;;;0.73;0.50;;;4.60;99.90;;;;;;5029035;28;20045;-58
2020/12/30 13:48:48;;;;;;;2.15;1.25;;;4.80;99.90;;;;;;5028251;28;20038;-55
2020/12/30 13:51:52;;;;;;;1.25;0.90;;;5.00;99.90;;;;;;5028673;28;20030;-56
2020/12/30 13:54:56;;;;;;;2.13;1.10;;;5.20;99.90;;;;;;5028301;28;20045;-56
2020/12/30 13:58:01;;;;;;;2.85;1.25;;;5.50;99.90;;;;;;5028796;28;20038;-55
2020/12/30 14:01:11;;;;;;;1.70;0.98;;;5.70;99.90;;;;;;5029342;28;20037;-58
2020/12/30 14:04:16;;;;;;;1.95;0.93;;;6.00;99.90;;;;;;5031607;28;20033;-56
2020/12/30 14:07:19;;;;;;;2.08;1.42;;;6.30;99.90;;;;;;5032215;28;20526;-57
2020/12/30 14:10:23;;;;;;;5.28;2.40;;;6.60;99.90;;;;;;5018587;28;20049;-56
2020/12/30 14:13:27;;;;;;;4.03;1.50;;;6.40;99.90;;;;;;5031164;28;20042;-55
2020/12/30 14:16:33;;;;;;;4.20;2.20;;;6.20;99.90;;;;;;5031940;28;20029;-55
2020/12/30 14:19:37;;;;;;;5.35;2.30;;;6.10;99.90;;;;;;5031558;28;20037;-57
2020/12/30 14:22:41;;;;;;;2.88;2.08;;;6.10;99.90;;;;;;5032094;28;20037;-57
2020/12/30 14:25:45;;;;;;;7.60;4.47;;;6.10;99.90;;;;;;5018716;28;20026;-59
2020/12/30 14:28:49;;;;;;;7.82;4.10;;;6.30;99.90;;;;;;5031682;28;20029;-58
2020/12/30 14:31:55;;;;;;;26.88;15.68;;;6.60;99.90;;;;;;5031161;28;20384;-56
2020/12/30 14:34:59;;;;;;;15.18;8.68;;;6.90;99.90;;;;;;5031019;28;20631;-57
2020/12/30 14:38:03;;;;;;;12.85;7.28;;;6.90;99.90;;;;;;5031340;28;20037;-58
2020/12/30 14:41:07;;;;;;;29.80;10.93;;;6.80;99.90;;;;;;5018719;28;20040;-59
2020/12/30 14:44:11;;;;;;;8.63;3.95;;;6.70;99.90;;;;;;5031169;28;20047;-58
2020/12/30 14:47:18;;;;;;;6.97;5.43;;;6.60;99.90;;;;;;5030976;28;20045;-58
2020/12/30 14:50:22;;;;;;;3.70;2.40;;;6.60;99.90;;;;;;5031230;28;20045;-59
2020/12/30 14:53:27;;;;;;;5.93;4.03;;;6.60;99.90;;;;;;5018333;28;20046;-55
2020/12/30 14:56:32;;;;;;;11.10;7.55;;;6.60;99.90;;;;;;5031353;28;20033;-55
2020/12/30 14:59:36;;;;;;;10.32;6.65;;;6.80;99.90;;;;;;5031215;28;20514;-57
2020/12/30 15:02:41;;;;;;;3.95;3.15;;;6.70;99.90;;;;;;5030875;28;20036;-58
2020/12/30 15:05:45;;;;;;;3.00;2.60;;;6.50;99.90;;;;;;5031061;28;20036;-56
2020/12/30 15:08:49;;;;;;;3.75;2.40;;;6.30;99.90;;;;;;5018865;28;20037;-55
2020/12/30 15:11:53;;;;;;;6.43;4.57;;;6.10;99.90;;;;;;5029864;28;20037;-55
2020/12/30 15:14:57;;;;;;;4.45;3.60;;;5.90;99.90;;;;;;5030391;28;20042;-57
2020/12/30 15:18:01;;;;;;;5.28;4.22;;;5.80;99.90;;;;;;5018081;28;20034;-57
2020/12/30 15:21:05;;;;;;;13.35;5.18;;;5.70;99.90;;;;;;5025703;28;20037;-57
2020/12/30 15:24:09;;;;;;;5.80;4.40;;;5.50;99.90;;;;;;5021285;28;20045;-56
2020/12/30 15:27:14;;;;;;;8.82;4.75;;;5.30;99.90;;;;;;5030519;28;20408;-58
2020/12/30 15:30:37;;;;;;;6.25;4.90;;;5.10;99.90;;;;;;5030772;28;20041;-56
2020/12/30 15:33:41;;;;;;;6.20;4.75;;;5.10;99.90;;;;;;5017628;28;20536;-58
2020/12/30 15:36:45;;;;;;;28.20;17.13;;;4.90;99.90;;;;;;5030362;28;20030;-57
2020/12/30 15:39:50;;;;;;;21.33;13.80;;;4.80;99.90;;;;;;5029982;28;20064;-58
2020/12/30 15:42:54;;;;;;;27.15;15.35;;;4.70;99.90;;;;;;5030393;28;20049;-56
2020/12/30 15:45:58;;;;;;;32.42;18.83;;;4.50;99.90;;;;;;5030176;28;20044;-58
2020/12/30 15:49:02;;;;;;;11.75;7.72;;;4.40;99.90;;;;;;5018081;28;20048;-59
2020/12/30 15:52:06;;;;;;;31.77;17.50;;;4.30;99.90;;;;;;5030001;28;20044;-58
2020/12/30 15:55:13;;;;;;;54.20;29.65;;;4.20;99.90;;;;;;5029182;28;20048;-58
2020/12/30 15:58:17;;;;;;;96.22;48.75;;;4.10;99.90;;;;;;5029927;28;20036;-55